createdAt,value
2022-12-11T00:00:38.472Z,16.10
2022-12-11T00:03:04.982Z,11.75
2022-12-11T00:05:31.384Z,13.43
2022-12-11T00:07:57.935Z,17.48
2022-12-11T00:10:24.850Z,12.32
2022-12-11T00:12:51.230Z,17.60
2022-12-11T00:15:17.655Z,17.90
2022-12-11T00:17:44.155Z,13.13
2022-12-11T00:20:11.069Z,12.35
2022-12-11T00:22:37.429Z,18.08
2022-12-11T00:25:04.248Z,13.27
2022-12-11T00:27:30.570Z,17.33
2022-12-11T00:29:57.079Z,15.05
2022-12-11T00:32:23.463Z,15.95
2022-12-11T00:34:49.790Z,17.05
2022-12-11T00:37:16.313Z,17.60
2022-12-11T00:39:42.773Z,13.50
2022-12-11T00:42:09.438Z,15.93
2022-12-11T00:44:36.003Z,15.43
2022-12-11T00:47:02.981Z,12.77
2022-12-11T00:49:29.642Z,16.15
2022-12-11T00:51:55.969Z,11.82
2022-12-11T00:54:22.372Z,13.20
2022-12-11T00:56:48.926Z,12.70
2022-12-11T00:59:15.305Z,12.50
2022-12-11T01:01:41.713Z,11.98
2022-12-11T01:04:08.224Z,11.48
2022-12-11T01:06:34.652Z,19.15
2022-12-11T01:09:01.061Z,12.82
2022-12-11T01:11:27.738Z,11.55
2022-12-11T01:13:54.129Z,16.88
2022-12-11T01:16:20.657Z,15.88
2022-12-11T01:18:47.068Z,15.60
2022-12-11T01:21:13.914Z,12.93
2022-12-11T01:23:40.588Z,10.60
2022-12-11T01:26:09.769Z,11.75
2022-12-11T01:28:36.550Z,12.23
2022-12-11T01:31:03.328Z,12.32
2022-12-11T01:33:29.719Z,8.60
2022-12-11T01:35:56.046Z,14.50
2022-12-11T01:38:22.461Z,15.07
2022-12-11T01:40:51.132Z,11.73
2022-12-11T01:43:18.060Z,16.98
2022-12-11T01:45:49.384Z,14.40
2022-12-11T01:48:22.653Z,11.20
2022-12-11T01:50:52.177Z,12.80
2022-12-11T01:53:24.991Z,11.57
2022-12-11T01:55:54.946Z,11.90
2022-12-11T01:58:24.800Z,10.45
2022-12-11T02:00:53.016Z,14.00
2022-12-11T02:03:19.719Z,16.67
2022-12-11T02:05:46.115Z,15.90
2022-12-11T02:08:12.623Z,14.95
2022-12-11T02:11:03.796Z,15.20
2022-12-11T02:13:38.074Z,12.07
2022-12-11T02:16:26.476Z,11.98
2022-12-11T02:19:02.831Z,13.88
2022-12-11T02:21:38.212Z,16.40
2022-12-11T02:26:53.780Z,11.18
2022-12-11T02:29:26.241Z,10.50
2022-12-11T02:32:17.365Z,12.38
2022-12-11T02:34:49.091Z,14.60
2022-12-11T02:37:20.414Z,16.15
2022-12-11T02:39:50.597Z,11.27
2022-12-11T02:42:19.247Z,10.70
2022-12-11T02:44:48.620Z,14.95
2022-12-11T02:47:17.387Z,11.38
2022-12-11T02:49:49.279Z,10.13
2022-12-11T02:52:20.935Z,11.35
2022-12-11T02:54:49.604Z,12.80
2022-12-11T02:57:34.024Z,16.85
2022-12-11T03:00:00.541Z,12.10
2022-12-11T03:02:27.344Z,12.57
2022-12-11T03:04:53.953Z,16.35
2022-12-11T03:07:27.519Z,13.75
2022-12-11T03:09:54.430Z,14.32
2022-12-11T03:12:27.462Z,10.57
2022-12-11T03:14:54.275Z,8.75
2022-12-11T03:17:26.993Z,15.50
2022-12-11T03:20:00.684Z,18.73
2022-12-11T03:22:44.968Z,15.20
2022-12-11T03:25:19.113Z,15.35
2022-12-11T03:27:57.255Z,16.45
2022-12-11T03:30:28.773Z,11.55
2022-12-11T03:33:09.128Z,14.25
2022-12-11T03:35:48.935Z,10.43
2022-12-11T03:38:21.091Z,12.80
2022-12-11T03:40:51.546Z,12.25
2022-12-11T03:43:21.203Z,16.77
2022-12-11T03:45:50.548Z,10.70
2022-12-11T03:48:18.615Z,9.88
2022-12-11T03:50:48.151Z,14.38
2022-12-11T03:53:14.985Z,13.35
2022-12-11T03:55:41.999Z,10.25
2022-12-11T03:58:08.536Z,11.98
2022-12-11T04:00:35.001Z,10.75
2022-12-11T04:03:01.402Z,10.75
2022-12-11T04:05:27.698Z,10.52
2022-12-11T04:07:54.263Z,13.68
2022-12-11T04:10:20.723Z,15.85
2022-12-11T04:12:47.105Z,10.02
2022-12-11T04:15:13.826Z,10.27
2022-12-11T04:17:40.173Z,11.98
2022-12-11T04:20:07.628Z,11.02
2022-12-11T04:22:33.965Z,8.23
2022-12-11T04:25:01.643Z,13.57
2022-12-11T04:27:28.014Z,12.05
2022-12-11T04:29:54.610Z,10.30
2022-12-11T04:32:20.924Z,12.38
2022-12-11T04:34:47.446Z,11.73
2022-12-11T04:37:13.834Z,10.50
2022-12-11T04:39:40.195Z,9.10
2022-12-11T04:42:06.578Z,9.68
2022-12-11T04:44:33.673Z,13.18
2022-12-11T04:47:00.102Z,8.48
2022-12-11T04:49:26.665Z,11.75
2022-12-11T04:51:53.347Z,9.38
2022-12-11T04:54:19.679Z,11.85
2022-12-11T04:56:46.359Z,13.38
2022-12-11T04:59:12.892Z,9.30
2022-12-11T05:01:39.587Z,10.52
2022-12-11T05:04:06.293Z,11.18
2022-12-11T05:06:32.940Z,8.40
2022-12-11T05:08:59.338Z,15.40
2022-12-11T05:11:25.728Z,8.30
2022-12-11T05:13:52.116Z,7.07
2022-12-11T05:16:18.552Z,6.85
2022-12-11T05:18:45.628Z,8.23
2022-12-11T05:21:14.155Z,9.02
2022-12-11T05:23:42.192Z,10.68
2022-12-11T05:26:12.751Z,9.38
2022-12-11T05:28:41.368Z,12.52
2022-12-11T05:31:14.530Z,10.82
2022-12-11T05:33:40.997Z,11.25
2022-12-11T05:36:08.524Z,5.85
2022-12-11T05:38:35.345Z,8.65
2022-12-11T05:41:07.593Z,10.98
2022-12-11T05:43:36.203Z,10.30
2022-12-11T05:46:27.908Z,10.57
2022-12-11T05:48:57.350Z,10.70
2022-12-11T05:51:24.258Z,9.15
2022-12-11T05:53:52.948Z,13.65
2022-12-11T05:56:25.386Z,11.77
2022-12-11T05:58:52.977Z,8.40
2022-12-11T06:01:25.399Z,9.05
2022-12-11T06:03:53.058Z,9.20
2022-12-11T06:06:19.710Z,10.07
2022-12-11T06:08:46.403Z,11.05
2022-12-11T06:11:13.877Z,10.70
2022-12-11T06:13:40.683Z,11.35
2022-12-11T06:16:08.480Z,10.55
2022-12-11T06:18:40.167Z,8.55
2022-12-11T06:21:25.380Z,10.85
2022-12-11T06:23:54.182Z,9.45
2022-12-11T06:26:21.642Z,8.90
2022-12-11T06:28:48.997Z,10.60
2022-12-11T06:31:15.808Z,10.25
2022-12-11T06:33:43.057Z,8.85
2022-12-11T06:36:12.759Z,10.10
2022-12-11T06:38:39.273Z,11.80
2022-12-11T06:41:07.866Z,9.05
2022-12-11T06:43:36.529Z,13.25
2022-12-11T06:46:07.882Z,8.63
2022-12-11T06:48:34.505Z,11.80
2022-12-11T06:51:05.787Z,7.82
2022-12-11T06:53:32.245Z,8.60
2022-12-11T06:56:04.009Z,11.48
2022-12-11T06:58:30.568Z,8.18
2022-12-11T07:00:57.353Z,9.52
2022-12-11T07:03:23.935Z,14.73
2022-12-11T07:05:50.621Z,9.60
2022-12-11T07:08:17.514Z,5.90
2022-12-11T07:10:44.214Z,10.95
2022-12-11T07:13:11.544Z,13.20
2022-12-11T07:15:40.502Z,11.85
2022-12-11T07:18:07.009Z,12.93
2022-12-11T07:20:33.628Z,12.60
2022-12-11T07:23:00.022Z,11.13
2022-12-11T07:25:26.394Z,7.20
2022-12-11T07:27:52.741Z,11.05
2022-12-11T07:30:19.138Z,5.80
2022-12-11T07:32:45.477Z,8.75
2022-12-11T07:35:12.129Z,6.18
2022-12-11T07:37:41.193Z,8.07
2022-12-11T07:40:08.450Z,5.22
2022-12-11T07:42:35.149Z,8.27
2022-12-11T07:45:01.777Z,6.22
2022-12-11T07:47:28.109Z,7.82
2022-12-11T07:49:54.422Z,4.35
2022-12-11T07:52:20.953Z,7.93
2022-12-11T07:54:47.314Z,8.07
2022-12-11T07:57:14.360Z,6.65
2022-12-11T07:59:40.851Z,6.57
2022-12-11T08:02:09.065Z,9.73
2022-12-11T08:04:35.608Z,7.18
2022-12-11T08:07:01.943Z,4.60
2022-12-11T08:09:28.264Z,5.55
2022-12-11T08:11:54.984Z,6.25
2022-12-11T08:14:21.384Z,5.25
2022-12-11T08:16:49.562Z,7.63
2022-12-11T08:19:16.731Z,11.32
2022-12-11T08:21:43.531Z,5.53
2022-12-11T08:24:10.110Z,10.45
2022-12-11T08:26:37.065Z,4.22
2022-12-11T08:29:03.675Z,6.35
2022-12-11T08:31:30.466Z,7.68
2022-12-11T08:33:57.903Z,9.63
2022-12-11T08:36:25.262Z,7.50
2022-12-11T08:38:54.922Z,8.82
2022-12-11T08:41:23.790Z,7.13
2022-12-11T08:43:50.686Z,11.20
2022-12-11T08:46:17.052Z,3.92
2022-12-11T08:48:43.859Z,7.03
2022-12-11T08:51:15.905Z,7.50
2022-12-11T08:53:43.247Z,4.45
2022-12-11T08:56:15.658Z,7.38
2022-12-11T08:58:42.648Z,9.57
2022-12-11T09:01:11.144Z,6.28
2022-12-11T09:03:38.838Z,8.93
2022-12-11T09:06:11.354Z,13.60
2022-12-11T09:08:38.101Z,9.32
2022-12-11T09:11:10.486Z,5.82
2022-12-11T09:13:37.854Z,8.07
2022-12-11T09:16:10.428Z,8.57
2022-12-11T09:18:38.271Z,10.68
2022-12-11T09:21:09.609Z,5.93
2022-12-11T09:23:36.431Z,6.28
2022-12-11T09:26:10.648Z,5.78
2022-12-11T09:28:41.358Z,7.35
2022-12-11T09:31:13.895Z,8.85
2022-12-11T09:33:40.708Z,11.23
2022-12-11T09:36:08.979Z,7.28
2022-12-11T09:38:36.280Z,8.57
2022-12-11T09:41:17.198Z,11.30
2022-12-11T09:44:16.201Z,9.43
2022-12-11T09:46:43.352Z,10.30
2022-12-11T09:49:25.751Z,4.95
2022-12-11T09:52:17.747Z,11.40
2022-12-11T09:54:50.036Z,8.68
2022-12-11T09:57:37.477Z,6.95
2022-12-11T10:00:26.331Z,8.68
2022-12-11T10:03:11.786Z,6.03
2022-12-11T10:06:04.569Z,12.27
2022-12-11T10:08:34.302Z,10.18
2022-12-11T10:11:32.448Z,9.40
2022-12-11T10:14:10.485Z,7.95
2022-12-11T10:16:49.587Z,17.85
2022-12-11T10:19:29.070Z,8.52
2022-12-11T10:21:56.494Z,12.20
2022-12-11T10:25:10.050Z,22.48
2022-12-11T10:27:34.445Z,15.90
2022-12-11T10:30:17.505Z,13.57
2022-12-11T10:33:06.539Z,9.30
2022-12-11T10:35:42.382Z,10.20
2022-12-11T10:38:30.026Z,12.50
2022-12-11T10:41:11.855Z,17.02
2022-12-11T10:43:42.888Z,20.77
2022-12-11T10:46:17.616Z,12.82
2022-12-11T10:48:56.216Z,10.95
2022-12-11T10:51:30.855Z,12.98
2022-12-11T10:54:07.184Z,13.70
2022-12-11T10:56:37.404Z,14.65
2022-12-11T10:59:04.073Z,12.60
2022-12-11T11:01:32.519Z,12.20
2022-12-11T11:04:04.109Z,8.13
2022-12-11T11:06:30.652Z,6.53
2022-12-11T11:08:58.534Z,8.05
2022-12-11T11:11:34.289Z,7.93
2022-12-11T11:14:21.123Z,11.35
2022-12-11T11:16:50.146Z,7.57
2022-12-11T11:19:32.634Z,9.15
2022-12-11T11:22:02.536Z,9.10
2022-12-11T11:24:36.806Z,7.93
2022-12-11T11:27:13.522Z,7.30
2022-12-11T11:29:41.427Z,6.93
2022-12-11T11:32:17.760Z,17.13
2022-12-11T11:34:44.140Z,13.52
2022-12-11T11:37:46.443Z,8.73
2022-12-11T11:40:36.942Z,15.30
2022-12-11T11:43:19.246Z,13.35
2022-12-11T11:45:53.489Z,24.63
2022-12-11T11:48:58.615Z,9.73
2022-12-11T11:51:32.047Z,12.60
2022-12-11T11:54:02.970Z,10.07
2022-12-11T11:56:35.020Z,13.35
2022-12-11T11:59:17.747Z,9.75
2022-12-11T12:01:44.188Z,8.85
2022-12-11T12:04:11.310Z,10.05
2022-12-11T12:07:02.789Z,12.05
2022-12-11T12:09:52.872Z,15.35
2022-12-11T12:12:50.325Z,11.77
2022-12-11T12:15:35.793Z,16.40
2022-12-11T12:18:13.974Z,12.27
2022-12-11T12:20:54.647Z,19.25
2022-12-11T12:23:36.885Z,16.52
2022-12-11T12:26:17.170Z,13.82
2022-12-11T12:28:55.690Z,18.75
2022-12-11T12:31:50.994Z,15.15
2022-12-11T12:34:31.860Z,16.58
2022-12-11T12:37:21.559Z,19.05
2022-12-11T12:39:53.525Z,22.70
2022-12-11T12:42:34.123Z,19.98
2022-12-11T12:45:05.351Z,16.38
2022-12-11T12:47:35.506Z,15.60
2022-12-11T12:50:03.909Z,13.38
2022-12-11T12:52:38.944Z,18.23
2022-12-11T12:55:19.243Z,23.30
2022-12-11T12:57:57.250Z,20.67
2022-12-11T13:00:35.476Z,17.27
2022-12-11T13:03:13.398Z,19.20
2022-12-11T13:05:43.200Z,12.93
2022-12-11T13:08:11.020Z,23.17
2022-12-11T13:10:40.000Z,16.33
2022-12-11T13:13:32.547Z,15.80
2022-12-11T13:16:17.092Z,15.93
2022-12-11T13:18:45.689Z,19.08
2022-12-11T13:21:33.732Z,12.35
2022-12-11T13:24:16.637Z,21.40
2022-12-11T13:26:43.702Z,18.17
2022-12-11T13:29:28.832Z,17.67
2022-12-11T13:32:22.613Z,12.95
2022-12-11T13:35:00.181Z,11.27
2022-12-11T13:37:33.648Z,19.02
2022-12-11T13:40:04.442Z,21.02
2022-12-11T13:42:54.350Z,16.77
2022-12-11T13:45:51.465Z,15.90
2022-12-11T13:48:27.027Z,25.15
2022-12-11T13:50:53.862Z,17.38
2022-12-11T13:53:21.871Z,17.92
2022-12-11T13:56:02.272Z,20.17
2022-12-11T13:58:30.127Z,14.90
2022-12-11T14:01:07.243Z,15.50
2022-12-11T14:03:34.811Z,13.40
2022-12-11T14:06:02.558Z,13.35
2022-12-11T14:08:38.163Z,12.77
2022-12-11T14:11:05.599Z,14.23
2022-12-11T14:13:41.070Z,11.82
2022-12-11T14:16:08.045Z,15.40
2022-12-11T14:18:36.494Z,12.48
2022-12-11T14:21:06.098Z,14.68
2022-12-11T14:23:35.586Z,16.05
2022-12-11T14:26:24.715Z,19.38
2022-12-11T14:28:52.718Z,21.83
2022-12-11T14:31:29.092Z,20.05
2022-12-11T14:34:03.072Z,18.17
2022-12-11T14:36:31.700Z,15.95
2022-12-11T14:39:06.293Z,17.92
2022-12-11T14:41:45.417Z,17.38
2022-12-11T14:44:15.343Z,14.85
2022-12-11T14:46:48.050Z,14.60
2022-12-11T14:49:45.088Z,16.23
2022-12-11T14:52:43.094Z,19.58
2022-12-11T14:55:17.778Z,10.90
2022-12-11T14:57:48.864Z,18.08
2022-12-11T15:00:34.141Z,17.38
2022-12-11T15:03:11.631Z,16.55
2022-12-11T15:05:52.857Z,16.13
2022-12-11T15:08:29.041Z,14.77
2022-12-11T15:11:08.536Z,15.32
2022-12-11T15:13:37.612Z,10.75
2022-12-11T15:16:07.478Z,14.80
2022-12-11T15:18:36.504Z,15.57
2022-12-11T15:21:05.501Z,15.13
2022-12-11T15:23:32.030Z,20.05
2022-12-11T15:26:00.850Z,14.63
2022-12-11T15:28:33.991Z,14.18
2022-12-11T15:31:03.562Z,13.90
2022-12-11T15:33:34.292Z,13.68
2022-12-11T15:36:06.909Z,21.42
2022-12-11T15:38:38.628Z,11.98
2022-12-11T15:41:06.460Z,14.40
2022-12-11T15:43:37.550Z,13.65
2022-12-11T15:46:05.658Z,13.90
2022-12-11T15:48:34.679Z,12.88
2022-12-11T15:51:01.441Z,14.10
2022-12-11T15:53:28.114Z,14.75
2022-12-11T15:55:54.993Z,15.32
2022-12-11T15:58:23.881Z,19.30
2022-12-11T16:00:50.947Z,14.93
2022-12-11T16:03:19.156Z,15.40
2022-12-11T16:05:46.316Z,12.23
2022-12-11T16:08:15.154Z,15.32
2022-12-11T16:10:45.294Z,14.52
2022-12-11T16:13:12.926Z,12.15
2022-12-11T16:15:45.251Z,10.48
2022-12-11T16:18:14.683Z,17.38
2022-12-11T16:20:44.341Z,17.98
2022-12-11T16:23:11.694Z,18.25
2022-12-11T16:25:39.759Z,18.85
2022-12-11T16:28:07.227Z,17.58
2022-12-11T16:30:35.679Z,16.52
2022-12-11T16:33:08.593Z,16.63
2022-12-11T16:35:38.699Z,20.42
2022-12-11T16:38:05.168Z,16.20
2022-12-11T16:40:31.643Z,15.55
2022-12-11T16:42:58.172Z,14.82
2022-12-11T16:45:25.696Z,16.45
2022-12-11T16:47:53.176Z,15.48
2022-12-11T16:50:20.069Z,18.13
2022-12-11T16:52:46.629Z,15.18
2022-12-11T16:55:14.272Z,14.23
2022-12-11T16:57:41.201Z,15.68
2022-12-11T17:00:10.364Z,21.27
2022-12-11T17:02:36.731Z,15.70
2022-12-11T17:05:03.612Z,13.52
2022-12-11T17:07:31.879Z,16.77
2022-12-11T17:09:58.592Z,19.73
2022-12-11T17:12:25.069Z,19.80
2022-12-11T17:14:51.513Z,15.20
2022-12-11T17:17:17.898Z,16.92
2022-12-11T17:19:44.320Z,16.55
2022-12-11T17:22:10.625Z,20.55
2022-12-11T17:24:37.064Z,17.15
2022-12-11T17:27:03.484Z,15.52
2022-12-11T17:29:29.789Z,17.77
2022-12-11T17:31:56.118Z,18.52
2022-12-11T17:34:22.585Z,14.90
2022-12-11T17:36:48.891Z,16.55
2022-12-11T17:39:15.225Z,27.75
2022-12-11T17:41:41.756Z,14.57
2022-12-11T17:44:08.053Z,16.20
2022-12-11T17:46:34.706Z,10.98
2022-12-11T17:49:03.577Z,18.95
2022-12-11T17:51:29.912Z,18.08
2022-12-11T17:53:56.295Z,15.60
2022-12-11T17:56:23.224Z,15.88
2022-12-11T17:58:49.856Z,16.90
2022-12-11T18:01:16.818Z,16.92
2022-12-11T18:03:43.266Z,17.65
2022-12-11T18:06:13.358Z,13.95
2022-12-11T18:08:40.345Z,18.70
2022-12-11T18:11:09.537Z,21.67
2022-12-11T18:13:36.227Z,17.00
2022-12-11T18:16:05.597Z,14.90
2022-12-11T18:18:32.169Z,19.23
2022-12-11T18:20:59.329Z,17.23
2022-12-11T18:23:25.721Z,21.92
2022-12-11T18:25:53.176Z,12.57
2022-12-11T18:28:19.539Z,15.38
2022-12-11T18:30:46.666Z,15.20
2022-12-11T18:33:13.126Z,18.80
2022-12-11T18:35:40.215Z,13.48
2022-12-11T18:38:07.253Z,16.05
2022-12-11T18:40:34.192Z,19.02
2022-12-11T18:43:00.528Z,15.43
2022-12-11T18:45:27.399Z,15.38
2022-12-11T18:47:53.754Z,11.20
2022-12-11T18:50:20.241Z,14.88
2022-12-11T18:52:46.904Z,19.88
2022-12-11T18:55:13.713Z,13.43
2022-12-11T18:57:40.234Z,16.92
2022-12-11T19:00:07.326Z,18.65
2022-12-11T19:02:35.215Z,17.95
2022-12-11T19:05:01.654Z,17.70
2022-12-11T19:07:28.030Z,16.77
2022-12-11T19:09:54.623Z,17.20
2022-12-11T19:12:21.058Z,18.00
2022-12-11T19:14:47.404Z,15.45
2022-12-11T19:17:13.859Z,16.27
2022-12-11T19:19:40.276Z,22.30
2022-12-11T19:22:06.613Z,18.90
2022-12-11T19:24:33.128Z,17.45
2022-12-11T19:26:59.727Z,17.08
2022-12-11T19:29:29.018Z,17.00
2022-12-11T19:31:56.010Z,14.95
2022-12-11T19:34:23.134Z,15.93
2022-12-11T19:36:49.610Z,18.40
2022-12-11T19:39:16.567Z,22.48
2022-12-11T19:41:43.532Z,21.50
2022-12-11T19:44:10.142Z,24.08
2022-12-11T19:46:36.767Z,18.85
2022-12-11T19:49:03.896Z,14.45
2022-12-11T19:51:33.370Z,19.13
2022-12-11T19:54:00.822Z,21.77
2022-12-11T19:56:27.190Z,20.23
2022-12-11T19:58:53.668Z,19.75
2022-12-11T20:01:25.861Z,24.17
2022-12-11T20:03:53.623Z,29.95
2022-12-11T20:06:20.169Z,27.65
2022-12-11T20:08:47.035Z,19.58
2022-12-11T20:11:18.475Z,19.40
2022-12-11T20:13:46.601Z,22.25
2022-12-11T20:16:14.080Z,16.52
2022-12-11T20:18:40.506Z,23.77
2022-12-11T20:21:09.651Z,13.55
2022-12-11T20:23:36.198Z,16.52
2022-12-11T20:26:07.598Z,18.73
2022-12-11T20:28:34.034Z,16.77
2022-12-11T20:31:08.606Z,21.52
2022-12-11T20:33:35.276Z,20.05
2022-12-11T20:36:02.286Z,20.70
2022-12-11T20:38:34.107Z,24.33
2022-12-11T20:41:00.836Z,21.38
2022-12-11T20:43:27.381Z,19.75
2022-12-11T20:45:53.731Z,24.52
2022-12-11T20:48:20.102Z,21.60
2022-12-11T20:50:46.529Z,15.90
2022-12-11T20:53:12.997Z,17.65
2022-12-11T20:55:40.495Z,17.38
2022-12-11T20:58:07.302Z,18.88
2022-12-11T21:00:33.902Z,29.42
2022-12-11T21:03:00.333Z,21.58
2022-12-11T21:05:26.902Z,20.05
2022-12-11T21:07:54.395Z,19.05
2022-12-11T21:10:21.203Z,22.02
2022-12-11T21:12:47.716Z,25.08
2022-12-11T21:15:14.527Z,22.05
2022-12-11T21:17:41.316Z,18.27
2022-12-11T21:20:08.120Z,15.23
2022-12-11T21:22:34.768Z,19.45
2022-12-11T21:25:01.706Z,19.55
2022-12-11T21:27:28.147Z,22.33
2022-12-11T21:29:54.832Z,21.15
2022-12-11T21:32:21.507Z,22.77
2022-12-11T21:34:50.391Z,15.23
2022-12-11T21:37:17.361Z,20.50
2022-12-11T21:39:44.045Z,26.77
2022-12-11T21:42:10.447Z,17.23
2022-12-11T21:47:23.148Z,19.30
2022-12-11T21:49:49.766Z,19.73
2022-12-11T21:52:16.163Z,21.98
2022-12-11T21:54:42.569Z,18.98
2022-12-11T21:57:08.897Z,22.40
2022-12-11T21:59:35.445Z,25.48
2022-12-11T22:02:01.817Z,24.17
2022-12-11T22:04:28.298Z,16.17
2022-12-11T22:06:54.656Z,15.00
2022-12-11T22:09:21.003Z,18.13
2022-12-11T22:11:47.959Z,14.65
2022-12-11T22:14:16.637Z,19.77
2022-12-11T22:16:43.924Z,45.78
2022-12-11T22:19:10.648Z,21.50
2022-12-11T22:21:37.252Z,21.40
2022-12-11T22:24:03.903Z,11.98
2022-12-11T22:26:30.516Z,13.00
2022-12-11T22:28:57.163Z,15.13
2022-12-11T22:31:25.704Z,11.55
2022-12-11T22:33:53.466Z,17.40
2022-12-11T22:36:20.362Z,15.60
2022-12-11T22:38:47.633Z,19.40
2022-12-11T22:41:22.464Z,25.00
2022-12-11T22:43:49.543Z,19.45
2022-12-11T22:46:18.448Z,18.45
2022-12-11T22:48:44.898Z,19.10
2022-12-11T22:51:11.933Z,24.13
2022-12-11T22:53:38.366Z,17.80
2022-12-11T22:56:06.960Z,18.88
2022-12-11T22:58:33.555Z,18.65
2022-12-11T23:01:00.207Z,18.33
2022-12-11T23:03:26.811Z,23.10
2022-12-11T23:05:53.415Z,15.30
2022-12-11T23:08:21.374Z,15.32
2022-12-11T23:10:48.191Z,13.73
2022-12-11T23:13:14.541Z,15.50
2022-12-11T23:15:41.037Z,17.35
2022-12-11T23:18:07.699Z,14.57
2022-12-11T23:20:34.191Z,12.93
2022-12-11T23:23:00.771Z,10.05
2022-12-11T23:25:27.204Z,13.32
2022-12-11T23:27:54.417Z,15.70
2022-12-11T23:30:21.285Z,18.58
2022-12-11T23:32:47.670Z,17.10
2022-12-11T23:35:14.334Z,14.93
2022-12-11T23:37:40.951Z,15.52
2022-12-11T23:40:08.398Z,15.13
2022-12-11T23:42:35.404Z,16.35
2022-12-11T23:45:02.319Z,14.65
2022-12-11T23:47:28.669Z,10.88
2022-12-11T23:49:55.154Z,13.07
2022-12-11T23:52:21.575Z,12.65
2022-12-11T23:54:47.939Z,18.83
2022-12-11T23:57:14.324Z,16.25
2022-12-11T23:59:40.642Z,17.48
